This is the latest recevied weather packets stored in our database for station/object OE6PLD-13. If no packets are shown the sender has not sent any weather packets the latest 10 day(s).
| Time | Temp. | Humidity | Pressure | Rain* | Wind** | Luminosity | Snow |
|---|---|---|---|---|---|---|---|
| 1777533365 | 8.89° C | 38% | 1019.5 hPa | 0.76 mm | - | 474 W/m² | - |
| 1777533182 | 8.89° C | 39% | 1019.5 hPa | 0.76 mm | - | 457 W/m² | - |
| 1777532998 | 8.33° C | 40% | 1019.6 hPa | 0.76 mm | - | 423 W/m² | - |
| 1777532815 | 7.78° C | 40% | 1019.6 hPa | 0.76 mm | - | 393 W/m² | - |
| 1777532632 | 7.78° C | 42% | 1019.5 hPa | 0.76 mm | - | 389 W/m² | - |
| 1777532448 | 8.33° C | 40% | 1019.8 hPa | 0.76 mm | - | 391 W/m² | - |
| 1777532265 | 8.33° C | 39% | 1019.8 hPa | 0.76 mm | - | 389 W/m² | - |
| 1777532082 | 8.33° C | 39% | 1019.9 hPa | 0.76 mm | - | 386 W/m² | - |
| 1777531898 | 7.78° C | 41% | 1020 hPa | 0.76 mm | - | 360 W/m² | - |
| 1777531715 | 7.78° C | 40% | 1019.9 hPa | 0.76 mm | - | 348 W/m² | - |
| 1777531532 | 7.78° C | 40% | 1019.8 hPa | 0.76 mm | - | 345 W/m² | - |
| 1777531348 | 7.78° C | 41% | 1019.8 hPa | 0.76 mm | - | 334 W/m² | - |
| 1777531165 | 7.78° C | 40% | 1019.9 hPa | 0.76 mm | - | 324 W/m² | - |
| 1777530981 | 7.22° C | 41% | 1019.7 hPa | 0.76 mm | - | 299 W/m² | - |
| 1777530798 | 7.22° C | 43% | 1019.9 hPa | 0.76 mm | - | 301 W/m² | - |
| 1777530615 | 7.22° C | 41% | 1020 hPa | 0.76 mm | - | 310 W/m² | - |
| 1777530432 | 7.22° C | 41% | 1019.8 hPa | 0.76 mm | - | 314 W/m² | - |
| 1777530248 | 7.78° C | 41% | 1019.7 hPa | 0.76 mm | - | 302 W/m² | - |
| 1777530065 | 8.33° C | 40% | 1019.7 hPa | 0.76 mm | - | 284 W/m² | - |
| 1777529882 | 7.78° C | 44% | 1019.7 hPa | 0.76 mm | - | 256 W/m² | - |
| 1777529698 | 8.89° C | 43% | 1019.7 hPa | 0.76 mm | - | 238 W/m² | - |
| 1777529515 | 8.33° C | 44% | 1019.6 hPa | 0.76 mm | - | 242 W/m² | - |
| 1777529331 | 7.78° C | 45% | 1019.6 hPa | 0.76 mm | - | 245 W/m² | - |
| 1777528965 | 7.78° C | 47% | 1019.4 hPa | 0.76 mm | - | 246 W/m² | - |
| 1777528781 | 7.78° C | 50% | 1019.6 hPa | 0.76 mm | - | 235 W/m² | - |
* Rain latest hour (hover to see other rain measurements)
** Current wind speed in m/s (hover to see current wind gust speed)